Flight Track Log - Related Links

Times and Time Zones

All times are in EDT time to prevent confusion due to time zone crossing. See the EJA904 flight status page for this flight to view local times or setup timezone preferences in your user account.

Time Position Orientation Groundspeed Altitude Reporting Facility
EDT Latitude Longitude Course Direction KTS MPH feet Rate Location/Type
Tue 06:20:42 PM 27.1425 -80.1269 115° Southeast 209 241 3,000  Level Miami Center
Tue 06:21:42 PM 27.0875 -80.1581 207° Southwest 194 223 4,000 900 Climbing Miami Center
Tue 06:22:42 PM 27.1253 -80.2406 297° West 200 230 4,800 950 Climbing Miami Center
Tue 06:23:42 PM 27.1758 -80.3075 310° West 256 295 5,900 2,100 Climbing Miami Center
Tue 06:24:42 PM 27.2306 -80.3700 315° West 297 342 9,000 3,050 Climbing Miami Center
Tue 06:25:42 PM 27.2917 -80.4394 315° West 309 356 12,000 3,250 Climbing Miami Center
Tue 06:26:42 PM 27.3606 -80.5189 314° West 315 362 15,500 3,100 Climbing Miami Center
Tue 06:27:42 PM 27.4214 -80.5956 312° West 320 368 18,200 2,500 Climbing Miami Center
Tue 06:28:42 PM 27.4864 -80.6656 316° Northwest 320 368 20,500 2,200 Climbing Miami Center
Tue 06:29:42 PM 27.5531 -80.7450 313° West 330 380 22,600 1,400 Climbing Miami Center
Tue 06:30:42 PM 27.6239 -80.8225 316° Northwest 355 409 23,300 900 Climbing Miami Center
Tue 06:31:42 PM 27.7069 -80.9144 316° Northwest 389 448 24,400 1,200 Climbing Miami Center
Tue 06:32:42 PM 27.7858 -81.0089 313° West 406 467 25,700 1,450 Climbing Miami Center
Tue 06:33:42 PM 27.8706 -81.1106 313° West 411 473 27,300 1,450 Climbing Miami Center
Tue 06:34:42 PM 27.9531 -81.2100 313° West 411 473 28,600 1,300 Climbing Miami Center
Tue 06:35:42 PM 28.0336 -81.3025 315° West 437 503 29,900 1,463 Climbing Miami Center
Tue 06:37:26 PM 28.1861 -81.4797 314° West 441 507 32,600 1,610 Climbing Jacksonville Center
Tue 06:38:26 PM 28.2789 -81.5844 315° West 454 522 34,300 2,000 Climbing Jacksonville Center
Tue 06:39:26 PM 28.3719 -81.6964 313° West 466 536 36,600 2,450 Climbing Jacksonville Center
Tue 06:40:26 PM 28.4561 -81.8017 312° West 466 536 39,200 2,050 Climbing Jacksonville Center
Tue 06:41:26 PM 28.5425 -81.9025 314° West 460 529 40,700 1,400 Climbing Jacksonville Center
Tue 06:42:26 PM 28.6289 -82.0056 314° West 454 522 42,000 1,000 Climbing Jacksonville Center
Tue 06:43:26 PM 28.7153 -82.1089 314° West 449 517 42,700 500 Climbing Jacksonville Center
Tue 06:44:26 PM 28.8056 -82.2172 314° West 454 522 43,000 150 Climbing Jacksonville Center
Tue 06:45:26 PM 28.9000 -82.3281 314° West 469 540 43,000  Level Jacksonville Center
Tue 06:46:26 PM 28.9903 -82.4417 312° West 475 547 43,000  Level Jacksonville Center
Tue 06:47:26 PM 29.0867 -82.5553 314° West 486 559 43,000  Level Jacksonville Center
Tue 06:48:26 PM 29.1911 -82.6642 318° Northwest 498 573 43,000  Level Jacksonville Center
Tue 06:49:26 PM 29.3019 -82.7639 322° Northwest 503 579 43,000  Level Jacksonville Center
Tue 06:50:26 PM 29.4125 -82.8569 324° Northwest 503 579 43,000 -50 Level Jacksonville Center
Tue 06:51:26 PM 29.5233 -82.9617 321° Northwest 501 577 42,900  Descending Jacksonville Center
Tue 06:52:26 PM 29.6128 -83.0789 311° West 494 568 43,000 50 Climbing Jacksonville Center
Tue 06:53:26 PM 29.6983 -83.1986 309° West 494 568 43,000  Level Jacksonville Center
Tue 06:54:26 PM 29.7897 -83.3208 311° West 499 574 43,000  Level Jacksonville Center
Tue 06:55:26 PM 29.8875 -83.4531 310° West 499 574 43,000 -50 Level Jacksonville Center
Tue 06:56:26 PM 29.9786 -83.5761 311° West 499 574 42,900 -50 Descending Jacksonville Center
Tue 06:57:26 PM 30.0697 -83.7014 310° West 504 580 42,900 50 Level Jacksonville Center
Tue 06:58:26 PM 30.1586 -83.8247 310° West 504 580 43,000 50 Climbing Jacksonville Center
Tue 06:59:26 PM 30.2497 -83.9483 310° West 504 580 43,000 -50 Level Jacksonville Center
Tue 07:00:26 PM 30.3425 -84.0744 310° West 504 580 42,900  Descending Jacksonville Center
Tue 07:01:26 PM 30.4125 -84.1739 309° West 504 580 43,000  Climbing Jacksonville Center
Tue 07:02:26 PM 30.5092 -84.3103 309° West 504 580 42,900  Descending Jacksonville Center
Tue 07:03:26 PM 30.5847 -84.4658 299° West 491 565 43,000 50 Climbing Jacksonville Center
Tue 07:04:26 PM 30.6289 -84.6017 291° West 498 573 43,000  Level Jacksonville Center
Tue 07:05:26 PM 30.6747 -84.7547 289° West 510 587 43,000  Level Jacksonville Center
Tue 07:06:26 PM 30.7283 -84.9297 290° West 516 594 43,000  Level Jacksonville Center
Tue 07:07:26 PM 30.7800 -85.0808 292° West 516 594 43,000  Level Jacksonville Center
Tue 07:08:26 PM 30.8633 -85.2111 307° West 494 568 43,000  Level Jacksonville Center
Tue 07:09:26 PM 30.9444 -85.3439 305° West 499 574 43,000  Level Jacksonville Center
Tue 07:10:25 PM 30.9686 -85.4994 280° West 493 567 43,000 -50 Level Jacksonville Center
Tue 07:11:26 PM 30.9714 -85.6619 271° West 490 564 42,900 -50 Descending Jacksonville Center
Tue 07:12:26 PM 30.9739 -85.8267 271° West 504 580 42,900 50 Level Jacksonville Center
Tue 07:13:26 PM 30.9764 -85.9892 271° West 504 580 43,000 50 Climbing Jacksonville Center
Tue 07:14:25 PM 30.9703 -86.1464 267° West 499 574 43,000  Level Jacksonville Center
Tue 07:15:25 PM 30.9514 -86.3056 262° West 499 574 43,000  Level Jacksonville Center
Tue 07:16:25 PM 30.9389 -86.4650 265° West 499 574 43,000  Level Jacksonville Center
Tue 07:17:25 PM 30.9194 -86.6239 262° West 499 574 43,000  Level Jacksonville Center
Tue 07:18:26 PM 30.9044 -86.7831 264° West 499 574 43,000  Level Jacksonville Center
Tue 07:19:26 PM 30.8722 -86.9439 257° West 499 574 43,000  Level Jacksonville Center
Tue 07:20:25 PM 30.8378 -87.1022 256° West 504 580 43,000  Level Jacksonville Center
Tue 07:21:25 PM 30.8056 -87.2578 256° West 504 580 43,000 -786 Level Jacksonville Center
Tue 07:23:13 PM 30.7458 -87.5311 256° West 494 568 40,800 -1,765 Descending Houston Center
Tue 07:24:15 PM 30.7150 -87.6789 256° West 474 545 38,000 -2,710 Descending Houston Center
Tue 07:25:17 PM 30.6822 -87.8250 255° West 468 539 35,200 -2,710 Descending Houston Center
Tue 07:26:19 PM 30.6500 -87.9753 256° West 475 547 32,400 -1,548 Descending Houston Center
Tue 07:27:21 PM 30.6153 -88.1344 256° West 504 580 32,000 -968 Descending Houston Center
Tue 07:28:23 PM 30.5786 -88.3019 256° West 530 610 30,400 -1,887 Descending Houston Center
Tue 07:29:25 PM 30.5403 -88.4736 256° West 545 627 28,100 -2,488 Descending Houston Center
Tue 07:30:26 PM 30.4953 -88.6742 255° West 534 615 25,300 -2,537 Descending Houston Center
Tue 07:31:28 PM 30.4614 -88.8286 256° West 497 572 22,900 -2,032 Descending Houston Center
Tue 07:32:30 PM 30.4311 -88.9622 255° West 468 539 21,100 -1,742 Descending Houston Center
Tue 07:33:32 PM 30.3964 -89.1061 254° West 467 537 19,300 -1,659 Descending Houston Center
Tue 07:34:33 PM 30.3450 -89.2442 247° West 466 536 17,700 -1,872 Descending Houston Center
Tue 07:35:21 PM 30.2936 -89.3814 247° West 462 532 15,900 -2,000 Descending Houston Center
Tue 07:36:09 PM 30.2556 -89.4844 247° West 451 519 14,500 -1,761 Descending Houston Center
Tue 07:37:10 PM 30.2081 -89.6142 247° West 438 504 12,700 -1,541 Descending Houston Center
Tue 07:37:58 PM 30.1803 -89.7189 253° West 400 460 11,700 -1,133 Descending Houston Center
Tue 07:38:40 PM 30.1686 -89.7883 259° West 373 429 11,000 -1,327 Descending Houston Center
Tue 07:39:42 PM 30.1519 -89.8897 259° West 330 380 9,400 -1,645 Descending Houston Center
Tue 07:40:44 PM 30.1369 -89.9869 260° West 311 358 7,600 -1,935 Descending Houston Center
Tue 07:41:46 PM 30.1225 -90.0806 260° West 303 349 5,400 -2,098 Descending Houston Center
Tue 07:42:47 PM 30.1086 -90.1664 259° West 289 333 3,300 -1,659 Descending Houston Center
Tue 07:43:49 PM 30.0817 -90.2197 240° Southwest 229 264 2,000 -1,258 Descending Houston Center
Tue 07:44:51 PM 30.0347 -90.2361 197° South 170 196 700 -780 Descending Houston Center
Tue 07:45:52 PM 30.0003 -90.2481 197° South 159 183 400 -295 Descending Houston Center
Tue 07:47:00 PM 29.9833 -90.2500 245° Southwest  Level FlightAware Approximate
Tue 07:54:00 PM 29.9934 -90.2580 245° Southwest  Level Estimated
Tue 07:55:00 PM 29.9934 -90.2580 245° Southwest  Level Estimated

Login

Don't have an account? Register now (free) for customized features, flight alerts, and more!